Time;durP1;ratioP1;P1;durP2;ratioP2;P2;SDS_P1;SDS_P2;PMS_P1;PMS_P2;Temp;Humidity;BMP_temperature;BMP_pressure;BME280_temperature;BME280_humidity;BME280_pressure;Samples;Min_cycle;Max_cycle;Signal;HPM_P1;HPM_P2
2023/10/03 00:03:08;;;;;;;;;;;19.80;99.90;;;;;;8399375;28;19932;-71
2023/10/03 00:07:10;;;;;;;;;;;19.80;99.90;;;;;;8392426;28;19928;-71
2023/10/03 00:11:18;;;;;;;;;;;19.80;99.90;;;;;;8409282;28;19931;-71
2023/10/03 00:15:21;;;;;;;;;;;19.80;99.90;;;;;;8416158;28;19930;-70
2023/10/03 00:19:23;;;;;;;;;;;19.80;99.90;;;;;;8409682;28;19995;-70
2023/10/03 00:23:25;;;;;;;;;;;19.80;99.90;;;;;;8418500;28;20286;-71
2023/10/03 00:27:28;;;;;;;;;;;19.80;99.90;;;;;;8417078;28;20042;-71
2023/10/03 00:31:30;;;;;;;;;;;19.70;99.90;;;;;;8417827;28;19924;-71
2023/10/03 00:35:31;;;;;;;;;;;19.70;99.90;;;;;;8418751;28;19932;-71
2023/10/03 00:39:33;;;;;;;;;;;19.70;99.90;;;;;;8411438;28;19924;-71
2023/10/03 00:43:35;;;;;;;;;;;19.60;99.90;;;;;;8399446;28;19925;-71
2023/10/03 00:47:36;;;;;;;;;;;19.60;99.90;;;;;;8407792;28;19967;-71
2023/10/03 00:51:40;;;;;;;;;;;19.60;99.90;;;;;;8402596;28;19924;-71
2023/10/03 00:55:47;;;;;;;;;;;19.60;99.90;;;;;;8420539;28;19951;-71
2023/10/03 00:59:50;;;;;;;;;;;19.60;99.90;;;;;;8416368;28;19932;-71
2023/10/03 01:03:51;;;;;;;;;;;19.60;99.90;;;;;;8413718;28;19928;-71
2023/10/03 01:07:53;;;;;;;;;;;19.50;99.90;;;;;;8415542;28;20737;-71
2023/10/03 01:11:56;;;;;;;;;;;19.50;99.90;;;;;;8412664;28;20376;-71
2023/10/03 01:15:58;;;;;;;;;;;19.50;99.90;;;;;;8407750;28;19963;-71
2023/10/03 01:20:01;;;;;;;;;;;19.50;99.90;;;;;;8417226;28;19924;-71
2023/10/03 01:24:07;;;;;;;;;;;19.50;99.90;;;;;;8414607;28;19931;-70
2023/10/03 01:28:09;;;;;;;;;;;19.50;99.90;;;;;;8410203;28;20235;-71
2023/10/03 01:32:11;;;;;;;;;;;19.50;99.90;;;;;;8422560;28;19931;-71
2023/10/03 01:36:12;;;;;;;;;;;19.50;99.90;;;;;;8394867;28;20396;-70
2023/10/03 01:40:16;;;;;;;;;;;19.50;99.90;;;;;;8399005;28;19924;-71
2023/10/03 01:44:18;;;;;;;;;;;19.50;99.90;;;;;;8394463;28;19932;-71
2023/10/03 01:48:20;;;;;;;;;;;19.50;99.90;;;;;;8415582;28;19978;-71
2023/10/03 01:52:22;;;;;;;;;;;19.50;99.90;;;;;;8415285;28;19924;-71
2023/10/03 01:56:25;;;;;;;;;;;19.40;99.90;;;;;;8398524;28;19931;-71
2023/10/03 02:00:26;;;;;;;;;;;19.40;99.90;;;;;;8390706;28;19940;-71
2023/10/03 02:04:28;;;;;;;;;;;19.40;99.90;;;;;;8419965;28;19932;-71
2023/10/03 02:08:32;;;;;;;;;;;19.40;99.90;;;;;;8406986;28;19924;-71
2023/10/03 02:12:35;;;;;;;;;;;19.40;99.90;;;;;;8403901;28;20330;-70
2023/10/03 02:16:46;;;;;;;;;;;19.40;99.90;;;;;;8413085;28;20014;-71
2023/10/03 02:20:52;;;;;;;;;;;19.40;99.90;;;;;;8420429;28;20008;-70
2023/10/03 02:24:54;;;;;;;;;;;19.40;99.90;;;;;;8415418;28;19985;-71
2023/10/03 02:28:59;;;;;;;;;;;19.40;99.90;;;;;;8415382;28;19997;-70
2023/10/03 02:33:09;;;;;;;;;;;19.30;99.90;;;;;;8399252;28;19928;-71
2023/10/03 02:37:12;;;;;;;;;;;19.30;99.90;;;;;;8399104;28;19934;-70
2023/10/03 02:41:15;;;;;;;;;;;19.30;99.90;;;;;;8405260;28;19925;-70
2023/10/03 02:50:15;;;;;;;;;;;19.30;99.90;;;;;;8412464;28;20582;-71
2023/10/03 02:54:17;;;;;;;;;;;19.40;99.90;;;;;;8408344;28;19931;-70
2023/10/03 02:58:22;;;;;;;;;;;19.40;99.90;;;;;;8395143;28;19924;-69
2023/10/03 03:02:24;;;;;;;;;;;19.50;99.90;;;;;;8412256;28;20033;-70
2023/10/03 03:06:26;;;;;;;;;;;19.60;99.90;;;;;;8414070;28;19946;-70
2023/10/03 03:10:28;;;;;;;;;;;19.60;99.90;;;;;;8392633;28;21188;-71
2023/10/03 03:14:30;;;;;;;;;;;19.70;99.90;;;;;;8412287;28;19928;-70
2023/10/03 03:18:42;;;;;;;;;;;19.70;99.90;;;;;;8405075;28;19989;-70
2023/10/03 03:22:47;;;;;;;;;;;19.80;99.90;;;;;;8414714;28;19924;-70
2023/10/03 03:26:49;;;;;;;;;;;19.80;99.90;;;;;;8414834;28;19962;-71
2023/10/03 03:30:58;;;;;;;;;;;19.80;99.90;;;;;;8412842;28;19928;-70
2023/10/03 03:35:01;;;;;;;;;;;19.80;99.90;;;;;;8395077;28;19936;-70
2023/10/03 03:39:05;;;;;;;;;;;19.90;99.90;;;;;;8418654;28;19939;-71
2023/10/03 03:43:08;;;;;;;;;;;19.90;99.90;;;;;;8419584;28;20386;-71
2023/10/03 03:47:11;;;;;;;;;;;19.90;99.90;;;;;;8418777;28;19950;-70
2023/10/03 03:51:14;;;;;;;;;;;20.00;99.90;;;;;;8396248;28;19924;-71
2023/10/03 03:55:19;;;;;;;;;;;20.00;99.90;;;;;;8404711;28;20348;-71
2023/10/03 03:59:22;;;;;;;;;;;20.10;99.90;;;;;;8397030;28;19934;-72
2023/10/03 04:03:24;;;;;;;;;;;20.10;99.90;;;;;;8413068;28;20413;-70
2023/10/03 04:07:26;;;;;;;;;;;20.00;99.90;;;;;;8411897;28;19932;-70
2023/10/03 04:11:27;;;;;;;;;;;19.90;99.90;;;;;;8391513;28;19928;-72
2023/10/03 04:15:29;;;;;;;;;;;19.80;99.90;;;;;;8417368;28;19924;-71
2023/10/03 04:19:31;;;;;;;;;;;19.80;99.90;;;;;;8410894;28;19977;-70
2023/10/03 04:23:32;;;;;;;;;;;19.70;99.90;;;;;;8412234;28;19924;-70
2023/10/03 04:27:35;;;;;;;;;;;19.60;99.90;;;;;;8419878;28;20430;-70
2023/10/03 04:31:37;;;;;;;;;;;19.50;99.90;;;;;;8417286;28;19969;-71
2023/10/03 04:35:40;;;;;;;;;;;19.40;99.90;;;;;;8402044;28;19975;-70
2023/10/03 04:39:41;;;;;;;;;;;19.30;99.90;;;;;;8412516;28;21107;-71
2023/10/03 04:43:43;;;;;;;;;;;19.30;99.90;;;;;;8396078;28;19924;-70
2023/10/03 04:47:48;;;;;;;;;;;19.20;99.90;;;;;;8392443;28;19928;-71
2023/10/03 04:51:50;;;;;;;;;;;19.20;99.90;;;;;;8413035;28;19925;-70
2023/10/03 04:55:52;;;;;;;;;;;19.10;99.90;;;;;;8409988;28;19928;-70
2023/10/03 04:59:56;;;;;;;;;;;19.10;99.90;;;;;;8391425;28;20359;-70
2023/10/03 05:03:59;;;;;;;;;;;19.10;99.90;;;;;;8401988;28;19931;-70
2023/10/03 05:08:01;;;;;;;;;;;19.00;99.90;;;;;;8412316;28;19924;-70
2023/10/03 05:12:04;;;;;;;;;;;18.90;99.90;;;;;;8417261;28;19924;-71
2023/10/03 05:16:07;;;;;;;;;;;18.90;99.90;;;;;;8406743;28;19925;-71
2023/10/03 05:20:10;;;;;;;;;;;18.80;99.90;;;;;;8403216;28;19931;-70
2023/10/03 05:24:16;;;;;;;;;;;18.80;99.90;;;;;;8401460;28;19928;-69
2023/10/03 05:33:39;;;;;;;;;;;18.80;99.90;;;;;;8415685;28;19927;-70
2023/10/03 05:37:41;;;;;;;;;;;18.70;99.90;;;;;;8394624;28;20293;-70
2023/10/03 05:41:43;;;;;;;;;;;18.70;99.90;;;;;;8406167;28;19989;-70
2023/10/03 05:45:49;;;;;;;;;;;18.70;99.90;;;;;;8417152;28;19928;-70
2023/10/03 05:49:51;;;;;;;;;;;18.70;99.90;;;;;;8424384;28;19934;-71
2023/10/03 05:53:54;;;;;;;;;;;18.70;99.90;;;;;;8419378;28;19951;-70
2023/10/03 05:57:55;;;;;;;;;;;18.80;99.90;;;;;;8421149;28;19935;-71
2023/10/03 06:01:58;;;;;;;;;;;18.80;99.90;;;;;;8426223;28;19928;-71
2023/10/03 06:06:00;;;;;;;;;;;18.80;99.90;;;;;;8409683;28;19935;-70
2023/10/03 06:10:04;;;;;;;;;;;18.80;99.90;;;;;;8410368;28;19929;-71
2023/10/03 06:14:06;;;;;;;;;;;18.80;99.90;;;;;;8397943;28;19924;-71
2023/10/03 06:18:08;;;;;;;;;;;18.80;99.90;;;;;;8400826;28;19931;-71
2023/10/03 06:22:12;;;;;;;;;;;18.80;99.90;;;;;;8421254;28;20295;-70
2023/10/03 06:26:17;;;;;;;;;;;18.80;99.90;;;;;;8421377;28;19932;-70
2023/10/03 06:30:20;;;;;;;;;;;18.80;99.90;;;;;;8403164;28;19924;-70
2023/10/03 06:34:22;;;;;;;;;;;18.80;99.90;;;;;;8418639;28;19935;-71
2023/10/03 06:38:25;;;;;;;;;;;18.80;99.90;;;;;;8409986;28;19928;-70
2023/10/03 06:42:27;;;;;;;;;;;18.80;99.90;;;;;;8418663;28;19935;-70
2023/10/03 06:46:29;;;;;;;;;;;18.80;99.90;;;;;;8420062;28;19925;-71
2023/10/03 06:50:30;;;;;;;;;;;18.70;99.90;;;;;;8424722;28;19928;-71
2023/10/03 06:54:32;;;;;;;;;;;18.70;99.90;;;;;;8396919;28;19993;-70
2023/10/03 06:58:34;;;;;;;;;;;18.60;99.90;;;;;;8409194;28;20383;-70
2023/10/03 07:02:36;;;;;;;;;;;18.60;99.90;;;;;;8403466;28;20318;-71
2023/10/03 07:06:38;;;;;;;;;;;18.60;99.90;;;;;;8416215;28;19924;-71
2023/10/03 07:10:42;;;;;;;;;;;18.60;99.90;;;;;;8395260;28;19970;-71
2023/10/03 07:14:48;;;;;;;;;;;18.50;99.90;;;;;;8423431;28;19924;-71
2023/10/03 07:18:50;;;;;;;;;;;18.50;99.90;;;;;;8410198;28;19924;-71
2023/10/03 07:22:52;;;;;;;;;;;18.60;99.90;;;;;;8419803;28;19928;-71
2023/10/03 07:26:54;;;;;;;;;;;18.60;99.90;;;;;;8417494;28;20007;-73
2023/10/03 07:30:56;;;;;;;;;;;18.60;99.90;;;;;;8421806;28;19928;-72
2023/10/03 07:34:57;;;;;;;;;;;18.60;99.90;;;;;;8417822;28;19924;-70
2023/10/03 07:38:59;;;;;;;;;;;18.60;99.90;;;;;;8397847;28;19928;-71
2023/10/03 07:43:02;;;;;;;;;;;18.60;99.90;;;;;;8414546;28;19986;-71
2023/10/03 07:47:04;;;;;;;;;;;18.50;99.90;;;;;;8413455;28;19981;-71
2023/10/03 07:51:05;;;;;;;;;;;18.40;99.90;;;;;;8416216;28;20439;-71
2023/10/03 07:55:07;;;;;;;;;;;18.30;99.90;;;;;;8429463;28;19924;-70
2023/10/03 07:59:09;;;;;;;;;;;18.20;99.90;;;;;;8393798;28;19932;-71
2023/10/03 08:03:14;;;;;;;;;;;18.10;99.90;;;;;;8415326;28;19924;-70
2023/10/03 08:07:25;;;;;;;;;;;18.00;99.90;;;;;;8406029;28;19978;-71
2023/10/03 08:11:30;;;;;;;;;;;18.00;99.90;;;;;;8409444;28;20143;-72
2023/10/03 08:15:31;;;;;;;;;;;17.90;99.90;;;;;;8413766;28;20011;-71
2023/10/03 08:19:34;;;;;;;;;;;17.80;99.90;;;;;;8398866;28;19932;-72
2023/10/03 08:23:37;;;;;;;;;;;17.70;99.90;;;;;;8422333;28;19931;-71
2023/10/03 08:27:39;;;;;;;;;;;17.70;99.90;;;;;;8416500;28;19985;-72
2023/10/03 08:31:40;;;;;;;;;;;17.60;99.90;;;;;;8412536;28;19928;-71
2023/10/03 08:35:42;;;;;;;;;;;17.60;99.90;;;;;;8393729;28;19935;-71
2023/10/03 08:39:45;;;;;;;;;;;17.60;99.90;;;;;;8417588;28;19924;-70
2023/10/03 08:43:53;;;;;;;;;;;17.60;99.90;;;;;;8420588;28;19931;-72
2023/10/03 08:47:55;;;;;;;;;;;17.50;99.90;;;;;;8415891;28;19973;-71
2023/10/03 08:52:01;;;;;;;;;;;17.50;99.90;;;;;;8418783;28;20229;-71
2023/10/03 08:56:08;;;;;;;;;;;17.50;99.90;;;;;;8414984;28;19969;-71
2023/10/03 09:00:10;;;;;;;;;;;17.60;99.90;;;;;;8404212;28;19924;-71
2023/10/03 09:04:18;;;;;;;;;;;17.60;99.90;;;;;;8407976;28;19924;-71
2023/10/03 09:08:20;;;;;;;;;;;17.60;99.90;;;;;;8396556;28;19924;-72
2023/10/03 09:12:25;;;;;;;;;;;17.60;99.90;;;;;;8416903;28;20387;-71
2023/10/03 09:16:27;;;;;;;;;;;17.40;99.90;;;;;;8423977;28;19924;-71
2023/10/03 09:20:31;;;;;;;;;;;17.30;99.90;;;;;;8421971;28;19923;-71
2023/10/03 09:24:43;;;;;;;;;;;17.10;99.90;;;;;;8399364;28;20364;-71
2023/10/03 09:28:45;;;;;;;;;;;17.10;99.90;;;;;;8425473;28;19924;-71
2023/10/03 09:32:48;;;;;;;;;;;17.10;99.90;;;;;;8425212;28;19931;-71
2023/10/03 09:36:50;;;;;;;;;;;17.10;99.90;;;;;;8428118;28;19928;-70
2023/10/03 09:40:52;;;;;;;;;;;17.10;99.90;;;;;;8402417;28;19924;-71
2023/10/03 09:44:57;;;;;;;;;;;17.10;99.90;;;;;;8400148;28;19924;-71
2023/10/03 09:49:08;;;;;;;;;;;17.10;99.90;;;;;;8416340;28;19928;-71
2023/10/03 09:53:15;;;;;;;;;;;17.10;99.90;;;;;;8428568;28;19924;-71
2023/10/03 09:57:17;;;;;;;;;;;17.10;99.90;;;;;;8413292;28;20754;-71
2023/10/03 10:01:19;;;;;;;;;;;17.10;99.90;;;;;;8410104;28;19924;-71
2023/10/03 10:05:23;;;;;;;;;;;17.00;99.90;;;;;;8415088;28;19924;-71
2023/10/03 10:09:28;;;;;;;;;;;17.10;99.90;;;;;;8398494;28;19924;-70
2023/10/03 10:13:34;;;;;;;;;;;17.10;99.90;;;;;;8416152;28;19935;-71
2023/10/03 10:17:45;;;;;;;;;;;17.20;99.90;;;;;;8424750;28;19971;-71
2023/10/03 10:21:59;;;;;;;;;;;17.30;99.90;;;;;;8404516;28;19924;-72
2023/10/03 10:26:21;;;;;;;;;;;17.30;99.90;;;;;;8419175;28;19928;-71
2023/10/03 10:30:25;;;;;;;;;;;17.40;99.90;;;;;;8420414;28;19924;-71
2023/10/03 10:34:32;;;;;;;;;;;17.30;99.90;;;;;;8412056;28;19939;-71
2023/10/03 10:38:34;;;;;;;;;;;17.20;99.90;;;;;;8416620;28;19947;-71
2023/10/03 10:42:54;;;;;;;;;;;17.10;99.90;;;;;;8394229;28;20383;-71
2023/10/03 10:47:04;;;;;;;;;;;17.00;99.90;;;;;;8417663;28;19928;-72
2023/10/03 10:51:12;;;;;;;;;;;16.80;99.90;;;;;;8418391;28;20299;-73
2023/10/03 10:55:15;;;;;;;;;;;16.60;99.90;;;;;;8428651;28;19925;-71
2023/10/03 10:59:16;;;;;;;;;;;16.50;99.90;;;;;;8405525;28;19976;-71
2023/10/03 11:03:20;;;;;;;;;;;16.40;99.90;;;;;;8414596;28;19932;-71
2023/10/03 11:07:22;;;;;;;;;;;16.40;99.90;;;;;;8399448;28;20391;-71
2023/10/03 11:11:32;;;;;;;;;;;16.40;99.90;;;;;;8389613;28;19924;-72
2023/10/03 11:15:34;;;;;;;;;;;16.40;99.90;;;;;;8387868;28;20403;-71
2023/10/03 11:19:36;;;;;;;;;;;16.40;99.90;;;;;;8416393;28;19924;-71
2023/10/03 11:23:38;;;;;;;;;;;16.30;99.90;;;;;;8381389;28;19985;-72
2023/10/03 11:27:40;;;;;;;;;;;16.20;99.90;;;;;;8370979;28;19928;-71
2023/10/03 11:31:42;;;;;;;;;;;16.20;99.90;;;;;;8396734;28;19986;-71
2023/10/03 11:35:51;;;;;;;;;;;16.20;99.90;;;;;;8392249;28;19935;-71
2023/10/03 11:39:53;;;;;;;;;;;16.20;99.90;;;;;;8389191;28;19999;-71
2023/10/03 11:43:54;;;;;;;;;;;16.10;99.90;;;;;;8391852;28;19924;-71
2023/10/03 11:47:57;;;;;;;;;;;16.10;99.90;;;;;;8382623;28;20319;-71
2023/10/03 11:51:59;;;;;;;;;;;16.00;99.90;;;;;;8377094;28;19924;-71
2023/10/03 11:56:01;;;;;;;;;;;15.90;99.90;;;;;;8397800;28;20313;-71
2023/10/03 12:00:14;;;;;;;;;;;15.80;99.90;;;;;;8387701;28;19959;-71
2023/10/03 12:04:17;;;;;;;;;;;15.80;99.90;;;;;;8389111;28;20008;-72
2023/10/03 12:08:19;;;;;;;;;;;15.70;99.90;;;;;;8405127;28;19928;-71
2023/10/03 12:12:21;;;;;;;;;;;15.60;99.90;;;;;;8397868;28;19928;-70
2023/10/03 12:16:24;;;;;;;;;;;15.50;99.90;;;;;;8379457;28;19928;-71
2023/10/03 12:20:26;;;;;;;;;;;15.50;99.90;;;;;;8391219;28;19931;-71
2023/10/03 12:24:28;;;;;;;;;;;15.50;99.90;;;;;;8392961;28;19974;-71
2023/10/03 12:28:30;;;;;;;;;;;15.50;99.90;;;;;;8399793;28;19924;-72
2023/10/03 12:32:34;;;;;;;;;;;15.60;99.90;;;;;;8397157;28;19935;-71
2023/10/03 12:36:37;;;;;;;;;;;15.70;99.90;;;;;;8389705;28;20019;-71
2023/10/03 12:40:39;;;;;;;;;;;15.90;99.90;;;;;;8404603;28;19936;-71
2023/10/03 12:44:41;;;;;;;;;;;16.10;99.90;;;;;;8396262;28;20028;-71
2023/10/03 12:48:42;;;;;;;;;;;16.20;99.90;;;;;;8401651;28;20391;-72
2023/10/03 12:52:44;;;;;;;;;;;16.20;99.90;;;;;;8389404;28;19924;-71
2023/10/03 12:56:46;;;;;;;;;;;16.10;99.90;;;;;;8399998;28;19935;-72
2023/10/03 13:00:49;;;;;;;;;;;16.10;99.90;;;;;;8398728;28;19924;-71
2023/10/03 13:04:50;;;;;;;;;;;16.20;99.90;;;;;;8400477;28;19924;-71
2023/10/03 13:08:52;;;;;;;;;;;16.20;99.90;;;;;;8393194;28;20333;-71
2023/10/03 13:12:57;;;;;;;;;;;16.10;99.90;;;;;;8396245;28;19936;-71
2023/10/03 13:17:01;;;;;;;;;;;16.10;99.90;;;;;;8393533;28;20349;-70
2023/10/03 13:21:03;;;;;;;;;;;15.90;99.90;;;;;;8395073;28;19970;-70
2023/10/03 13:25:06;;;;;;;;;;;15.70;99.90;;;;;;8399200;28;19993;-71
2023/10/03 13:29:08;;;;;;;;;;;15.40;99.90;;;;;;8391874;28;19947;-70
2023/10/03 13:33:10;;;;;;;;;;;15.20;99.90;;;;;;8396369;28;19929;-71
2023/10/03 13:37:12;;;;;;;;;;;15.20;99.90;;;;;;8396252;28;19932;-71
2023/10/03 13:41:14;;;;;;;;;;;15.20;99.90;;;;;;8377309;28;19924;-71
2023/10/03 13:45:16;;;;;;;;;;;15.30;99.90;;;;;;8396838;28;19924;-71
2023/10/03 13:49:19;;;;;;;;;;;15.40;99.90;;;;;;8397497;28;19979;-71
2023/10/03 13:53:21;;;;;;;;;;;15.50;99.90;;;;;;8397823;28;19928;-71
2023/10/03 13:57:23;;;;;;;;;;;15.70;99.90;;;;;;8395466;28;19928;-71
2023/10/03 14:01:25;;;;;;;;;;;16.00;99.90;;;;;;8398479;28;19928;-72
2023/10/03 14:05:27;;;;;;;;;;;16.40;99.90;;;;;;8399431;28;19928;-71
2023/10/03 14:09:28;;;;;;;;;;;16.60;99.90;;;;;;8393362;28;19954;-70
2023/10/03 14:13:31;;;;;;;;;;;16.70;99.90;;;;;;8380467;28;19931;-71
2023/10/03 14:17:33;;;;;;;;;;;16.60;99.90;;;;;;8390423;28;20395;-71
2023/10/03 14:21:34;;;;;;;;;;;16.50;99.90;;;;;;8392530;28;19951;-71
2023/10/03 14:25:46;;;;;;;;;;;16.30;99.90;;;;;;8399435;28;20877;-71
2023/10/03 14:29:48;;;;;;;;;;;16.20;99.90;;;;;;8386621;28;20399;-70
2023/10/03 14:33:50;;;;;;;;;;;16.20;99.90;;;;;;8390132;28;19946;-70
2023/10/03 14:37:51;;;;;;;;;;;16.10;99.90;;;;;;8386555;28;19928;-71
2023/10/03 14:41:53;;;;;;;;;;;16.10;99.90;;;;;;8396755;28;19928;-71
2023/10/03 14:45:57;;;;;;;;;;;16.20;99.90;;;;;;8398304;28;19978;-71
2023/10/03 14:49:59;;;;;;;;;;;16.40;99.90;;;;;;8371580;28;19929;-71
2023/10/03 14:54:02;;;;;;;;;;;16.50;99.90;;;;;;8392135;28;20516;-71
2023/10/03 14:58:04;;;;;;;;;;;16.70;99.90;;;;;;8391931;28;19936;-71
2023/10/03 15:02:07;;;;;;;;;;;16.70;99.90;;;;;;8331359;28;1766756;-71
2023/10/03 15:06:08;;;;;;;;;;;16.80;99.90;;;;;;8391149;28;19928;-70
2023/10/03 15:10:10;;;;;;;;;;;16.80;99.90;;;;;;8399395;28;19978;-71
2023/10/03 15:14:12;;;;;;;;;;;16.90;99.90;;;;;;8397353;28;19931;-70
2023/10/03 15:18:14;;;;;;;;;;;16.90;99.90;;;;;;8382087;28;20364;-71
2023/10/03 15:22:15;;;;;;;;;;;16.90;99.90;;;;;;8383905;28;19924;-72
2023/10/03 15:26:17;;;;;;;;;;;16.80;99.90;;;;;;8397081;28;19924;-70
2023/10/03 15:30:19;;;;;;;;;;;16.70;99.90;;;;;;8400069;28;19939;-71
2023/10/03 15:34:27;;;;;;;;;;;16.70;99.90;;;;;;8378517;28;19986;-70
2023/10/03 15:38:30;;;;;;;;;;;16.80;99.90;;;;;;8391002;28;20352;-71
2023/10/03 15:42:34;;;;;;;;;;;16.80;99.90;;;;;;8389874;28;19928;-71
2023/10/03 15:46:35;;;;;;;;;;;16.90;99.90;;;;;;8401525;28;19931;-71
2023/10/03 15:50:37;;;;;;;;;;;17.00;99.90;;;;;;8387939;28;20402;-70
2023/10/03 15:54:39;;;;;;;;;;;17.00;99.90;;;;;;8384992;28;21205;-70
2023/10/03 15:58:41;;;;;;;;;;;16.90;99.90;;;;;;8387168;28;19943;-71
2023/10/03 16:02:43;;;;;;;;;;;17.00;99.90;;;;;;8373126;28;20390;-70
2023/10/03 16:06:45;;;;;;;;;;;17.00;99.90;;;;;;8367565;28;19924;-70
2023/10/03 16:10:47;;;;;;;;;;;16.90;99.90;;;;;;8391238;28;19932;-70
2023/10/03 16:14:48;;;;;;;;;;;16.90;99.90;;;;;;8378082;28;19929;-70
2023/10/03 16:18:50;;;;;;;;;;;16.80;99.90;;;;;;8371989;28;19925;-70
2023/10/03 16:22:52;;;;;;;;;;;16.80;99.90;;;;;;8390165;28;19924;-70
2023/10/03 16:26:53;;;;;;;;;;;16.70;99.90;;;;;;8390590;28;19933;-71
2023/10/03 16:30:55;;;;;;;;;;;16.70;99.90;;;;;;8379585;28;20018;-70
2023/10/03 16:34:58;;;;;;;;;;;16.70;99.90;;;;;;8389388;28;19932;-71
2023/10/03 16:39:03;;;;;;;;;;;16.60;99.90;;;;;;8373906;28;20281;-71
2023/10/03 16:43:07;;;;;;;;;;;16.50;99.90;;;;;;8393631;28;19993;-71
2023/10/03 16:47:09;;;;;;;;;;;16.40;99.90;;;;;;8389930;28;19924;-70
2023/10/03 17:01:19;;;;;;;;;;;16.10;99.90;;;;;;8398194;28;20056;-70
2023/10/03 17:05:20;;;;;;;;;;;16.00;99.90;;;;;;8386569;28;19957;-70
2023/10/03 17:09:22;;;;;;;;;;;16.00;99.90;;;;;;8399545;28;20399;-70
2023/10/03 17:13:24;;;;;;;;;;;15.90;99.90;;;;;;8395857;28;19929;-71
2023/10/03 17:17:25;;;;;;;;;;;15.90;99.90;;;;;;8396185;28;19932;-70
2023/10/03 17:21:28;;;;;;;;;;;15.90;99.90;;;;;;8398864;28;19968;-71
2023/10/03 17:25:31;;;;;;;;;;;15.90;99.90;;;;;;8398933;28;19933;-71
2023/10/03 17:29:32;;;;;;;;;;;15.80;99.90;;;;;;8385022;28;19924;-70
2023/10/03 17:33:34;;;;;;;;;;;15.80;99.90;;;;;;8406553;28;19932;-71
2023/10/03 17:37:39;;;;;;;;;;;15.70;99.90;;;;;;8399375;28;19936;-70
2023/10/03 17:41:41;;;;;;;;;;;15.70;99.90;;;;;;8411261;28;19931;-71
2023/10/03 17:45:43;;;;;;;;;;;15.70;99.90;;;;;;8411252;28;19935;-70
2023/10/03 17:49:44;;;;;;;;;;;15.70;99.90;;;;;;8403144;28;19935;-71
2023/10/03 17:53:48;;;;;;;;;;;15.70;99.90;;;;;;8401008;28;19924;-71
2023/10/03 17:57:49;;;;;;;;;;;15.70;99.90;;;;;;8410341;28;19924;-70
2023/10/03 18:01:53;;;;;;;;;;;15.70;99.90;;;;;;8401899;28;19936;-70
2023/10/03 18:05:57;;;;;;;;;;;15.70;99.90;;;;;;8382738;28;20366;-71
2023/10/03 18:09:59;;;;;;;;;;;15.70;99.90;;;;;;8390993;28;19967;-70
2023/10/03 18:14:00;;;;;;;;;;;15.60;99.90;;;;;;8398942;28;19932;-71
2023/10/03 18:18:02;;;;;;;;;;;15.50;99.90;;;;;;8394360;28;19932;-71
2023/10/03 18:22:04;;;;;;;;;;;15.40;99.90;;;;;;8399803;28;19939;-70
2023/10/03 18:26:12;;;;;;;;;;;15.30;99.90;;;;;;8383121;28;19924;-71
2023/10/03 18:30:14;;;;;;;;;;;15.30;99.90;;;;;;8386625;28;19936;-71
2023/10/03 18:34:15;;;;;;;;;;;15.30;99.90;;;;;;8398841;28;20027;-71
2023/10/03 18:38:17;;;;;;;;;;;15.20;99.90;;;;;;8399291;28;20292;-70
2023/10/03 18:42:20;;;;;;;;;;;15.10;99.90;;;;;;8398318;28;20018;-71
2023/10/03 18:46:21;;;;;;;;;;;15.10;99.90;;;;;;8400126;28;19935;-70
2023/10/03 18:50:25;;;;;;;;;;;15.10;99.90;;;;;;8381226;28;20031;-71
2023/10/03 18:54:27;;;;;;;;;;;15.10;99.90;;;;;;8396976;28;19985;-71
2023/10/03 18:58:29;;;;;;;;;;;15.00;99.90;;;;;;8402348;28;19924;-71
2023/10/03 19:02:30;;;;;;;;;;;15.10;99.90;;;;;;8397392;28;19947;-71
2023/10/03 19:06:34;;;;;;;;;;;15.10;99.90;;;;;;8394676;28;19924;-70
2023/10/03 19:10:36;;;;;;;;;;;15.10;99.90;;;;;;8400553;28;19932;-71
2023/10/03 19:14:37;;;;;;;;;;;15.00;99.90;;;;;;8403380;28;19986;-71
2023/10/03 19:18:39;;;;;;;;;;;15.00;99.90;;;;;;8400855;28;20372;-71
2023/10/03 19:22:42;;;;;;;;;;;15.00;99.90;;;;;;8392482;28;19924;-71
2023/10/03 19:26:43;;;;;;;;;;;15.10;99.90;;;;;;8399786;28;19928;-71
2023/10/03 19:30:45;;;;;;;;;;;15.10;99.90;;;;;;8407557;28;20001;-71
2023/10/03 19:34:48;;;;;;;;;;;15.10;99.90;;;;;;8396585;28;20375;-71
2023/10/03 19:38:50;;;;;;;;;;;15.10;99.90;;;;;;8409948;28;19928;-71
2023/10/03 19:42:52;;;;;;;;;;;15.00;99.90;;;;;;8396769;28;20035;-71
2023/10/03 19:46:58;;;;;;;;;;;15.00;99.90;;;;;;8390727;28;19924;-71
2023/10/03 19:51:05;;;;;;;;;;;14.90;99.90;;;;;;8397548;28;19924;-71
2023/10/03 19:55:09;;;;;;;;;;;15.00;99.90;;;;;;8402091;28;19928;-71
2023/10/03 19:59:11;;;;;;;;;;;14.90;99.90;;;;;;8374099;28;19931;-71
2023/10/03 20:03:13;;;;;;;;;;;14.90;99.90;;;;;;8376922;28;20368;-71
2023/10/03 20:07:17;;;;;;;;;;;14.90;99.90;;;;;;8396108;28;19928;-71
2023/10/03 20:11:18;;;;;;;;;;;14.80;99.90;;;;;;8383465;28;19928;-71
2023/10/03 20:15:20;;;;;;;;;;;14.80;99.90;;;;;;8396086;28;19986;-71
2023/10/03 20:19:23;;;;;;;;;;;14.80;99.90;;;;;;8388313;28;19928;-71
2023/10/03 20:23:26;;;;;;;;;;;14.70;99.90;;;;;;8408266;28;20925;-71
2023/10/03 20:27:28;;;;;;;;;;;14.70;99.90;;;;;;8384342;28;20053;-71
2023/10/03 20:31:29;;;;;;;;;;;14.70;99.90;;;;;;8380442;28;20323;-71
2023/10/03 20:35:31;;;;;;;;;;;14.60;99.90;;;;;;8393716;28;19924;-71
2023/10/03 20:39:37;;;;;;;;;;;14.60;99.90;;;;;;8393995;28;19925;-71
2023/10/03 20:43:38;;;;;;;;;;;14.50;99.90;;;;;;8398959;28;19928;-71
2023/10/03 20:47:40;;;;;;;;;;;14.40;99.90;;;;;;8421328;28;19924;-71
2023/10/03 20:51:42;;;;;;;;;;;14.30;99.90;;;;;;8397888;28;20011;-70
2023/10/03 20:55:43;;;;;;;;;;;14.30;99.90;;;;;;8398354;28;19935;-71
2023/10/03 20:59:45;;;;;;;;;;;14.40;99.90;;;;;;8396640;28;19932;-71
2023/10/03 21:03:50;;;;;;;;;;;14.40;99.90;;;;;;8396295;28;19935;-71
2023/10/03 21:07:52;;;;;;;;;;;14.40;99.90;;;;;;8420549;28;19924;-71
2023/10/03 21:21:54;;;;;;;;;;;14.50;99.90;;;;;;8419704;28;19935;-71
2023/10/03 21:25:55;;;;;;;;;;;14.50;99.90;;;;;;8419535;28;19924;-71
2023/10/03 21:29:57;;;;;;;;;;;14.40;99.90;;;;;;8421907;28;19924;-71
2023/10/03 21:33:58;;;;;;;;;;;14.40;99.90;;;;;;8399668;28;19931;-70
2023/10/03 21:38:02;;;;;;;;;;;14.40;99.90;;;;;;8404673;28;21772;-70
2023/10/03 21:42:03;;;;;;;;;;;14.40;99.90;;;;;;8423355;28;19924;-71
2023/10/03 21:46:05;;;;;;;;;;;14.40;99.90;;;;;;8391583;28;19924;-71
2023/10/03 21:50:07;;;;;;;;;;;14.40;99.90;;;;;;8413371;28;19950;-71
2023/10/03 21:54:09;;;;;;;;;;;14.40;99.90;;;;;;8424903;28;19960;-70
2023/10/03 21:58:11;;;;;;;;;;;14.40;99.90;;;;;;8432072;28;19928;-71
2023/10/03 22:02:14;;;;;;;;;;;14.40;99.90;;;;;;8422877;28;19924;-70
2023/10/03 22:06:15;;;;;;;;;;;14.50;99.90;;;;;;8399114;28;19925;-71
2023/10/03 22:10:18;;;;;;;;;;;14.40;99.90;;;;;;8424851;28;20340;-70
2023/10/03 22:14:20;;;;;;;;;;;14.50;99.90;;;;;;8418039;28;19938;-71
2023/10/03 22:28:03;;;;;;;;;;;14.40;99.90;;;;;;8413024;28;19928;-71
2023/10/03 22:32:05;;;;;;;;;;;14.40;99.90;;;;;;8406357;28;19936;-71
2023/10/03 22:36:06;;;;;;;;;;;14.40;99.90;;;;;;8420446;28;19977;-71
2023/10/03 22:40:08;;;;;;;;;;;14.40;99.90;;;;;;8417368;28;19932;-71
2023/10/03 22:44:10;;;;;;;;;;;14.40;99.90;;;;;;8405538;28;19924;-71
2023/10/03 22:48:12;;;;;;;;;;;14.30;99.90;;;;;;8414393;28;19993;-71
2023/10/03 22:52:13;;;;;;;;;;;14.30;99.90;;;;;;8416063;28;19932;-72
2023/10/03 22:56:16;;;;;;;;;;;14.30;99.90;;;;;;8403898;28;19924;-71
2023/10/03 23:00:21;;;;;;;;;;;14.30;99.90;;;;;;8401877;28;19924;-70
2023/10/03 23:04:23;;;;;;;;;;;14.30;99.90;;;;;;8426242;28;19924;-71
2023/10/03 23:08:24;;;;;;;;;;;14.30;99.90;;;;;;8396351;28;20368;-71
2023/10/03 23:12:26;;;;;;;;;;;14.30;99.90;;;;;;8417447;28;20383;-71
2023/10/03 23:16:28;;;;;;;;;;;14.30;99.90;;;;;;8399640;28;20414;-70
2023/10/03 23:20:32;;;;;;;;;;;14.20;99.90;;;;;;8419278;28;19932;-70
2023/10/03 23:24:33;;;;;;;;;;;14.20;99.90;;;;;;8421496;28;19928;-71
2023/10/03 23:28:35;;;;;;;;;;;14.20;99.90;;;;;;8412055;28;19970;-70
2023/10/03 23:32:37;;;;;;;;;;;14.20;99.90;;;;;;8418303;28;19928;-71
2023/10/03 23:36:39;;;;;;;;;;;14.20;99.90;;;;;;8418705;28;20650;-71
2023/10/03 23:40:41;;;;;;;;;;;14.20;99.90;;;;;;8420008;28;20425;-70
2023/10/03 23:44:43;;;;;;;;;;;14.20;99.90;;;;;;8390679;28;20311;-71
2023/10/03 23:48:47;;;;;;;;;;;14.20;99.90;;;;;;8414527;28;19928;-71
2023/10/03 23:52:50;;;;;;;;;;;14.20;99.90;;;;;;8403212;28;19936;-71
2023/10/03 23:56:51;;;;;;;;;;;14.10;99.90;;;;;;8419082;28;19928;-71
